R11 EFTP-EFTP
Flight info
| Callsign | R11 |
|---|---|
| Flight time | 0h 26m |
| Altitude | 4000 |
| Route | TPAP |
| Aircraft | HAWK/M-SDGIRY/C |
Departure
| Time | 2026-05-06 06:13 |
|---|---|
| Airport | Tampere-Pirkkala Airport (EFTP) |
Arrival
| Time | 2026-05-06 06:39 |
|---|---|
| Airport | Tampere-Pirkkala Airport (EFTP) |
| Time | Latitude | Longitude | Altitude | Speed | Heading |
|---|---|---|---|---|---|
| 2026-05-06 06:07 | 61.41302 | 23.62588 | 383 ft | 0 kts | 293° |
| 2026-05-06 06:10 | 61.41306 | 23.62568 | 383 ft | 6 kts | 293° |
| 2026-05-06 06:11 | 61.41324 | 23.62523 | 383 ft | 3 kts | 7° |
| 2026-05-06 06:11 | 61.41349 | 23.62538 | 383 ft | 11 kts | 15° |
| 2026-05-06 06:11 | 61.41467 | 23.62549 | 382 ft | 17 kts | 22° |
| 2026-05-06 06:11 | 61.41572 | 23.62639 | 380 ft | 16 kts | 22° |
| 2026-05-06 06:12 | 61.41681 | 23.62729 | 373 ft | 18 kts | 21° |
| 2026-05-06 06:12 | 61.41792 | 23.62829 | 371 ft | 16 kts | 20° |
| 2026-05-06 06:12 | 61.41891 | 23.62770 | 366 ft | 16 kts | 313° |
| 2026-05-06 06:12 | 61.41914 | 23.62612 | 367 ft | 11 kts | 243° |
| 2026-05-06 06:13 | 61.41760 | 23.61925 | 373 ft | 104 kts | 243° |
| 2026-05-06 06:13 | 61.41318 | 23.60059 | 882 ft | 172 kts | 247° |
| 2026-05-06 06:13 | 61.40739 | 23.57494 | 2296 ft | 214 kts | 248° |
| 2026-05-06 06:13 | 61.40092 | 23.54546 | 4305 ft | 239 kts | 249° |
| 2026-05-06 06:14 | 61.39135 | 23.51298 | 4541 ft | 285 kts | 222° |
| 2026-05-06 06:14 | 61.37217 | 23.50139 | 4465 ft | 309 kts | 179° |
| 2026-05-06 06:14 | 61.35245 | 23.52115 | 4353 ft | 323 kts | 140° |
| 2026-05-06 06:14 | 61.34053 | 23.56004 | 4329 ft | 328 kts | 106° |
| 2026-05-06 06:15 | 61.34214 | 23.60532 | 4497 ft | 308 kts | 67° |
| 2026-05-06 06:15 | 61.34940 | 23.64695 | 4342 ft | 304 kts | 67° |
| 2026-05-06 06:15 | 61.35667 | 23.68780 | 4350 ft | 297 kts | 67° |
| 2026-05-06 06:15 | 61.36372 | 23.72837 | 4227 ft | 299 kts | 68° |
| 2026-05-06 06:16 | 61.37083 | 23.76917 | 4195 ft | 297 kts | 67° |
| 2026-05-06 06:16 | 61.37778 | 23.80906 | 4328 ft | 291 kts | 67° |
| 2026-05-06 06:16 | 61.38480 | 23.84876 | 4277 ft | 293 kts | 67° |
| 2026-05-06 06:16 | 61.39179 | 23.88875 | 4209 ft | 293 kts | 67° |
| 2026-05-06 06:17 | 61.39890 | 23.92825 | 4125 ft | 294 kts | 66° |
| 2026-05-06 06:17 | 61.40660 | 23.96772 | 4029 ft | 288 kts | 58° |
| 2026-05-06 06:17 | 61.42048 | 23.99438 | 3925 ft | 267 kts | 11° |
| 2026-05-06 06:17 | 61.43762 | 23.98991 | 3881 ft | 246 kts | 330° |
| 2026-05-06 06:18 | 61.45335 | 23.97413 | 3546 ft | 254 kts | 330° |
| 2026-05-06 06:18 | 61.46913 | 23.95846 | 3384 ft | 252 kts | 328° |
| 2026-05-06 06:18 | 61.47928 | 23.93159 | 3481 ft | 234 kts | 282° |
| 2026-05-06 06:18 | 61.47873 | 23.89778 | 3357 ft | 238 kts | 263° |
| 2026-05-06 06:19 | 61.47356 | 23.86443 | 3106 ft | 247 kts | 245° |
| 2026-05-06 06:19 | 61.46597 | 23.83339 | 2738 ft | 230 kts | 246° |
| 2026-05-06 06:19 | 61.45930 | 23.80416 | 2325 ft | 214 kts | 247° |
| 2026-05-06 06:19 | 61.45313 | 23.77691 | 1990 ft | 202 kts | 247° |
| 2026-05-06 06:20 | 61.44713 | 23.75133 | 1712 ft | 188 kts | 247° |
| 2026-05-06 06:20 | 61.44198 | 23.72738 | 1464 ft | 172 kts | 248° |
| 2026-05-06 06:20 | 61.43720 | 23.70606 | 1198 ft | 153 kts | 246° |
| 2026-05-06 06:20 | 61.43287 | 23.68751 | 1018 ft | 137 kts | 246° |
| 2026-05-06 06:21 | 61.42892 | 23.66895 | 889 ft | 142 kts | 248° |
| 2026-05-06 06:21 | 61.42465 | 23.65130 | 661 ft | 137 kts | 249° |
| 2026-05-06 06:21 | 61.42046 | 23.63223 | 476 ft | 147 kts | 248° |
| 2026-05-06 06:21 | 61.41621 | 23.61345 | 423 ft | 148 kts | 246° |
| 2026-05-06 06:22 | 61.41116 | 23.59091 | 1153 ft | 200 kts | 247° |
| 2026-05-06 06:22 | 61.40510 | 23.56148 | 2782 ft | 240 kts | 249° |
| 2026-05-06 06:22 | 61.39771 | 23.52760 | 4138 ft | 283 kts | 243° |
| 2026-05-06 06:22 | 61.38047 | 23.50857 | 4237 ft | 302 kts | 179° |
| 2026-05-06 06:23 | 61.36320 | 23.53054 | 4326 ft | 298 kts | 128° |
| 2026-05-06 06:23 | 61.35597 | 23.57039 | 4232 ft | 294 kts | 94° |
| 2026-05-06 06:23 | 61.35846 | 23.61154 | 4279 ft | 284 kts | 74° |
| 2026-05-06 06:23 | 61.36325 | 23.65122 | 4272 ft | 286 kts | 72° |
| 2026-05-06 06:24 | 61.36866 | 23.69035 | 4513 ft | 276 kts | 72° |
| 2026-05-06 06:24 | 61.37423 | 23.72886 | 4443 ft | 279 kts | 70° |
| 2026-05-06 06:24 | 61.38019 | 23.76782 | 4303 ft | 283 kts | 69° |
| 2026-05-06 06:24 | 61.38636 | 23.80686 | 4314 ft | 282 kts | 69° |
| 2026-05-06 06:25 | 61.39244 | 23.84554 | 4389 ft | 279 kts | 72° |
| 2026-05-06 06:25 | 61.39749 | 23.88477 | 4361 ft | 281 kts | 73° |
| 2026-05-06 06:25 | 61.40693 | 23.96377 | 4313 ft | 280 kts | 70° |
| 2026-05-06 06:26 | 61.41761 | 23.99594 | 4257 ft | 267 kts | 29° |
| 2026-05-06 06:26 | 61.43466 | 24.00118 | 4288 ft | 242 kts | 338° |
| 2026-05-06 06:26 | 61.44903 | 23.98448 | 4310 ft | 238 kts | 328° |
| 2026-05-06 06:26 | 61.46370 | 23.96804 | 4020 ft | 244 kts | 328° |
| 2026-05-06 06:27 | 61.47856 | 23.95036 | 3539 ft | 244 kts | 322° |
| 2026-05-06 06:27 | 61.48464 | 23.92024 | 3310 ft | 229 kts | 268° |
| 2026-05-06 06:27 | 61.47958 | 23.88926 | 3110 ft | 226 kts | 244° |
| 2026-05-06 06:27 | 61.47226 | 23.86017 | 2848 ft | 226 kts | 245° |
| 2026-05-06 06:28 | 61.46528 | 23.83039 | 2501 ft | 228 kts | 247° |
| 2026-05-06 06:28 | 61.45887 | 23.80064 | 2242 ft | 227 kts | 248° |
| 2026-05-06 06:28 | 61.45218 | 23.77144 | 1983 ft | 215 kts | 247° |
| 2026-05-06 06:28 | 61.44590 | 23.74425 | 1680 ft | 199 kts | 246° |
| 2026-05-06 06:29 | 61.44028 | 23.71885 | 1361 ft | 186 kts | 245° |
| 2026-05-06 06:29 | 61.43463 | 23.69549 | 1081 ft | 171 kts | 245° |
| 2026-05-06 06:29 | 61.43013 | 23.67420 | 886 ft | 149 kts | 247° |
| 2026-05-06 06:29 | 61.42598 | 23.65631 | 699 ft | 126 kts | 244° |
| 2026-05-06 06:30 | 61.42242 | 23.64066 | 519 ft | 118 kts | 243° |
| 2026-05-06 06:30 | 61.41870 | 23.62430 | 398 ft | 126 kts | 245° |
| 2026-05-06 06:30 | 61.41497 | 23.60804 | 480 ft | 142 kts | 244° |
| 2026-05-06 06:30 | 61.40996 | 23.58654 | 1518 ft | 189 kts | 245° |
| 2026-05-06 06:31 | 61.40341 | 23.55799 | 3038 ft | 233 kts | 246° |
| 2026-05-06 06:31 | 61.39685 | 23.52554 | 4509 ft | 266 kts | 263° |
| 2026-05-06 06:31 | 61.40294 | 23.49048 | 4467 ft | 272 kts | 316° |
| 2026-05-06 06:31 | 61.42076 | 23.47832 | 4392 ft | 281 kts | 358° |
| 2026-05-06 06:32 | 61.43907 | 23.49219 | 4286 ft | 292 kts | 32° |
| 2026-05-06 06:32 | 61.45234 | 23.52438 | 4257 ft | 294 kts | 52° |
| 2026-05-06 06:32 | 61.46380 | 23.55958 | 4187 ft | 293 kts | 52° |
| 2026-05-06 06:32 | 61.47557 | 23.59503 | 3973 ft | 297 kts | 52° |
| 2026-05-06 06:33 | 61.48739 | 23.63017 | 3978 ft | 293 kts | 51° |
| 2026-05-06 06:33 | 61.49917 | 23.66527 | 3717 ft | 299 kts | 52° |
| 2026-05-06 06:33 | 61.51105 | 23.70201 | 3359 ft | 308 kts | 54° |
| 2026-05-06 06:33 | 61.52268 | 23.73936 | 3303 ft | 302 kts | 54° |
| 2026-05-06 06:34 | 61.53376 | 23.77592 | 3359 ft | 294 kts | 55° |
| 2026-05-06 06:34 | 61.54457 | 23.81237 | 3201 ft | 296 kts | 56° |
| 2026-05-06 06:34 | 61.55233 | 23.85194 | 3154 ft | 295 kts | 82° |
| 2026-05-06 06:34 | 61.54905 | 23.89363 | 3159 ft | 290 kts | 117° |
| 2026-05-06 06:35 | 61.53540 | 23.92201 | 3291 ft | 273 kts | 161° |
| 2026-05-06 06:35 | 61.51760 | 23.93362 | 3188 ft | 276 kts | 167° |
| 2026-05-06 06:35 | 61.49889 | 23.94417 | 3091 ft | 272 kts | 181° |
| 2026-05-06 06:35 | 61.48527 | 23.92542 | 2962 ft | 247 kts | 257° |
| 2026-05-06 06:36 | 61.48006 | 23.89104 | 2938 ft | 249 kts | 247° |
| 2026-05-06 06:36 | 61.47241 | 23.85829 | 2867 ft | 251 kts | 245° |
| 2026-05-06 06:36 | 61.46477 | 23.82706 | 2531 ft | 229 kts | 245° |
| 2026-05-06 06:36 | 61.45796 | 23.79891 | 2221 ft | 209 kts | 245° |
| 2026-05-06 06:37 | 61.45205 | 23.77234 | 1949 ft | 194 kts | 249° |
| 2026-05-06 06:37 | 61.44669 | 23.74760 | 1701 ft | 178 kts | 249° |
| 2026-05-06 06:37 | 61.44167 | 23.72597 | 1451 ft | 153 kts | 246° |
| 2026-05-06 06:37 | 61.43744 | 23.70729 | 1226 ft | 130 kts | 247° |
| 2026-05-06 06:38 | 61.43351 | 23.69019 | 1049 ft | 130 kts | 244° |
| 2026-05-06 06:38 | 61.42967 | 23.67333 | 888 ft | 130 kts | 246° |
| 2026-05-06 06:38 | 61.42585 | 23.65603 | 723 ft | 130 kts | 247° |
| 2026-05-06 06:38 | 61.42212 | 23.63962 | 546 ft | 122 kts | 245° |
| 2026-05-06 06:39 | 61.41848 | 23.62344 | 385 ft | 125 kts | 245° |
| 2026-05-06 06:39 | 61.41527 | 23.60922 | 384 ft | 89 kts | 244° |
| 2026-05-06 06:39 | 61.41300 | 23.59929 | 387 ft | 65 kts | 244° |
| 2026-05-06 06:39 | 61.41148 | 23.59278 | 390 ft | 18 kts | 244° |
| 2026-05-06 06:40 | 61.41080 | 23.59204 | 391 ft | 10 kts | 165° |
| 2026-05-06 06:40 | 61.41019 | 23.59262 | 389 ft | 10 kts | 144° |
| 2026-05-06 06:40 | 61.40974 | 23.59378 | 387 ft | 12 kts | 98° |
| 2026-05-06 06:40 | 61.40976 | 23.59539 | 389 ft | 11 kts | 94° |
| 2026-05-06 06:41 | 61.40969 | 23.59719 | 387 ft | 14 kts | 99° |
| 2026-05-06 06:41 | 61.40937 | 23.59940 | 385 ft | 17 kts | 116° |
| 2026-05-06 06:41 | 61.40863 | 23.60168 | 378 ft | 22 kts | 131° |
| 2026-05-06 06:41 | 61.40743 | 23.60411 | 373 ft | 24 kts | 124° |
| 2026-05-06 06:42 | 61.40701 | 23.60696 | 371 ft | 18 kts | 86° |
| 2026-05-06 06:42 | 61.40726 | 23.60940 | 370 ft | 16 kts | 85° |
| 2026-05-06 06:42 | 61.40717 | 23.61132 | 372 ft | 12 kts | 99° |
| 2026-05-06 06:42 | 61.40712 | 23.61315 | 368 ft | 13 kts | 81° |
| 2026-05-06 06:43 | 61.40743 | 23.61454 | 370 ft | 8 kts | 51° |
| 2026-05-06 06:43 | 61.40777 | 23.61522 | 371 ft | 6 kts | 42° |
| 2026-05-06 06:43 | 61.40802 | 23.61569 | 372 ft | 5 kts | 44° |
| 2026-05-06 06:43 | 61.40842 | 23.61662 | 375 ft | 4 kts | 1° |
| 2026-05-06 06:44 | 61.40851 | 23.61658 | 375 ft | 0 kts | 335° |